sensor_id;sensor_type;location;lat;lon;timestamp;pressure;altitude;pressure_sealevel;temperature;humidity
3544;BME280;1786;52.870;9.578;2022-08-07T00:00:35;101740.25;;;21.54;55.63
3544;BME280;1786;52.870;9.578;2022-08-07T00:03:06;101739.53;;;21.61;55.56
3544;BME280;1786;52.870;9.578;2022-08-07T00:05:35;101739.69;;;21.50;55.69
3544;BME280;1786;52.870;9.578;2022-08-07T00:08:03;101748.03;;;21.67;55.40
3544;BME280;1786;52.870;9.578;2022-08-07T00:10:33;101739.13;;;21.76;55.12
3544;BME280;1786;52.870;9.578;2022-08-07T00:13:03;101740.13;;;21.75;55.22
3544;BME280;1786;52.870;9.578;2022-08-07T00:15:51;101737.56;;;21.64;55.44
3544;BME280;1786;52.870;9.578;2022-08-07T00:18:20;101734.59;;;21.47;55.52
3544;BME280;1786;52.870;9.578;2022-08-07T00:20:56;101733.03;;;21.54;55.67
3544;BME280;1786;52.870;9.578;2022-08-07T00:23:29;101726.09;;;21.52;55.22
3544;BME280;1786;52.870;9.578;2022-08-07T00:25:56;101733.75;;;21.56;55.34
3544;BME280;1786;52.870;9.578;2022-08-07T00:28:29;101725.38;;;21.59;54.98
3544;BME280;1786;52.870;9.578;2022-08-07T00:31:02;101728.78;;;21.52;55.32
3544;BME280;1786;52.870;9.578;2022-08-07T00:33:33;101725.38;;;21.59;55.23
3544;BME280;1786;52.870;9.578;2022-08-07T00:36:00;101731.63;;;21.60;55.09
3544;BME280;1786;52.870;9.578;2022-08-07T00:38:27;101728.22;;;21.58;55.29
3544;BME280;1786;52.870;9.578;2022-08-07T00:40:59;101723.81;;;21.57;55.28
3544;BME280;1786;52.870;9.578;2022-08-07T00:43:26;101731.63;;;21.50;55.26
3544;BME280;1786;52.870;9.578;2022-08-07T00:46:13;101725.66;;;21.37;55.65
3544;BME280;1786;52.870;9.578;2022-08-07T00:48:41;101724.25;;;21.43;55.40
3544;BME280;1786;52.870;9.578;2022-08-07T00:51:08;101728.63;;;21.44;55.17
3544;BME280;1786;52.870;9.578;2022-08-07T00:53:35;101728.22;;;21.48;54.99
3544;BME280;1786;52.870;9.578;2022-08-07T00:56:16;101731.16;;;21.35;55.08
3544;BME280;1786;52.870;9.578;2022-08-07T00:58:43;101732.03;;;21.46;54.50
3544;BME280;1786;52.870;9.578;2022-08-07T01:01:13;101726.75;;;21.25;55.17
3544;BME280;1786;52.870;9.578;2022-08-07T01:03:40;101726.50;;;21.37;55.14
3544;BME280;1786;52.870;9.578;2022-08-07T01:06:26;101725.91;;;21.34;55.04
3544;BME280;1786;52.870;9.578;2022-08-07T01:08:55;101732.25;;;21.23;55.22
3544;BME280;1786;52.870;9.578;2022-08-07T01:11:27;101724.06;;;21.25;54.37
3544;BME280;1786;52.870;9.578;2022-08-07T01:14:14;101717.97;;;21.23;54.89
3544;BME280;1786;52.870;9.578;2022-08-07T01:16:43;101719.97;;;21.30;54.54
3544;BME280;1786;52.870;9.578;2022-08-07T01:19:15;101728.56;;;21.14;54.62
3544;BME280;1786;52.870;9.578;2022-08-07T01:21:48;101714.94;;;21.06;54.73
3544;BME280;1786;52.870;9.578;2022-08-07T01:24:23;101727.00;;;21.02;54.76
3544;BME280;1786;52.870;9.578;2022-08-07T01:26:51;101720.75;;;20.92;55.14
3544;BME280;1786;52.870;9.578;2022-08-07T01:29:25;101724.44;;;21.01;55.00
3544;BME280;1786;52.870;9.578;2022-08-07T01:31:59;101721.66;;;20.71;55.22
3544;BME280;1786;52.870;9.578;2022-08-07T01:34:32;101719.03;;;20.91;54.92
3544;BME280;1786;52.870;9.578;2022-08-07T01:37:06;101726.19;;;20.81;55.59
3544;BME280;1786;52.870;9.578;2022-08-07T01:39:37;101719.13;;;20.80;55.78
3544;BME280;1786;52.870;9.578;2022-08-07T01:42:19;101721.53;;;20.83;56.04
3544;BME280;1786;52.870;9.578;2022-08-07T01:45:08;101721.94;;;20.78;56.04
3544;BME280;1786;52.870;9.578;2022-08-07T01:47:49;101720.63;;;20.63;56.12
3544;BME280;1786;52.870;9.578;2022-08-07T01:50:37;101718.41;;;20.26;56.69
3544;BME280;1786;52.870;9.578;2022-08-07T01:53:10;101714.00;;;20.46;56.19
3544;BME280;1786;52.870;9.578;2022-08-07T01:55:55;101718.41;;;20.26;56.33
3544;BME280;1786;52.870;9.578;2022-08-07T01:58:28;101714.50;;;20.30;56.29
3544;BME280;1786;52.870;9.578;2022-08-07T02:01:03;101715.78;;;20.36;56.05
3544;BME280;1786;52.870;9.578;2022-08-07T02:04:06;101710.63;;;20.44;55.63
3544;BME280;1786;52.870;9.578;2022-08-07T02:06:36;101703.25;;;20.46;55.86
3544;BME280;1786;52.870;9.578;2022-08-07T02:09:08;101706.81;;;20.46;56.20
3544;BME280;1786;52.870;9.578;2022-08-07T02:11:57;101705.78;;;20.38;56.39
3544;BME280;1786;52.870;9.578;2022-08-07T02:14:54;101710.25;;;20.27;56.22
3544;BME280;1786;52.870;9.578;2022-08-07T02:17:29;101701.47;;;20.25;56.44
3544;BME280;1786;52.870;9.578;2022-08-07T02:20:01;101705.94;;;20.15;56.67
3544;BME280;1786;52.870;9.578;2022-08-07T02:22:36;101704.88;;;20.27;56.55
3544;BME280;1786;52.870;9.578;2022-08-07T02:25:10;101701.53;;;20.35;56.42
3544;BME280;1786;52.870;9.578;2022-08-07T02:27:54;101696.69;;;20.08;56.59
3544;BME280;1786;52.870;9.578;2022-08-07T02:30:23;101699.59;;;20.16;56.55
3544;BME280;1786;52.870;9.578;2022-08-07T02:32:52;101700.06;;;20.21;56.33
3544;BME280;1786;52.870;9.578;2022-08-07T02:35:36;101692.38;;;20.17;56.65
3544;BME280;1786;52.870;9.578;2022-08-07T02:38:31;101696.50;;;20.21;56.38
3544;BME280;1786;52.870;9.578;2022-08-07T02:41:02;101695.91;;;20.17;56.31
3544;BME280;1786;52.870;9.578;2022-08-07T02:43:34;101690.25;;;19.89;56.51
3544;BME280;1786;52.870;9.578;2022-08-07T02:46:06;101690.94;;;20.13;56.10
3544;BME280;1786;52.870;9.578;2022-08-07T02:48:34;101696.75;;;20.18;56.12
3544;BME280;1786;52.870;9.578;2022-08-07T02:51:09;101689.38;;;20.10;56.27
3544;BME280;1786;52.870;9.578;2022-08-07T02:53:59;101685.78;;;20.00;56.43
3544;BME280;1786;52.870;9.578;2022-08-07T02:56:29;101686.69;;;20.10;56.41
3544;BME280;1786;52.870;9.578;2022-08-07T02:58:59;101682.03;;;20.12;56.62
3544;BME280;1786;52.870;9.578;2022-08-07T03:01:30;101675.06;;;20.00;57.00
3544;BME280;1786;52.870;9.578;2022-08-07T03:04:08;101680.59;;;20.08;56.82
3544;BME280;1786;52.870;9.578;2022-08-07T03:06:41;101675.06;;;20.00;56.63
3544;BME280;1786;52.870;9.578;2022-08-07T03:09:12;101676.16;;;19.97;56.51
3544;BME280;1786;52.870;9.578;2022-08-07T03:11:41;101676.63;;;20.02;56.54
3544;BME280;1786;52.870;9.578;2022-08-07T03:14:25;101684.88;;;19.89;56.06
3544;BME280;1786;52.870;9.578;2022-08-07T03:16:55;101679.59;;;19.78;56.53
3544;BME280;1786;52.870;9.578;2022-08-07T03:19:23;101680.81;;;19.95;56.08
3544;BME280;1786;52.870;9.578;2022-08-07T03:21:55;101684.41;;;20.05;56.23
3544;BME280;1786;52.870;9.578;2022-08-07T03:24:25;101682.16;;;20.10;56.14
3544;BME280;1786;52.870;9.578;2022-08-07T03:27:00;101677.22;;;19.85;56.24
3544;BME280;1786;52.870;9.578;2022-08-07T03:29:45;101684.75;;;19.91;55.91
3544;BME280;1786;52.870;9.578;2022-08-07T03:32:22;101689.19;;;20.02;55.77
3544;BME280;1786;52.870;9.578;2022-08-07T03:34:52;101687.81;;;20.07;55.69
3544;BME280;1786;52.870;9.578;2022-08-07T03:37:42;101686.38;;;20.03;55.46
3544;BME280;1786;52.870;9.578;2022-08-07T03:40:20;101681.09;;;19.71;55.93
3544;BME280;1786;52.870;9.578;2022-08-07T03:42:49;101688.00;;;19.74;55.64
3544;BME280;1786;52.870;9.578;2022-08-07T03:45:18;101681.53;;;19.65;56.25
3544;BME280;1786;52.870;9.578;2022-08-07T03:47:59;101688.31;;;19.80;56.16
3544;BME280;1786;52.870;9.578;2022-08-07T03:50:27;101694.03;;;19.87;55.83
3544;BME280;1786;52.870;9.578;2022-08-07T03:52:57;101697.28;;;19.91;56.04
3544;BME280;1786;52.870;9.578;2022-08-07T03:55:27;101706.34;;;19.89;55.78
3544;BME280;1786;52.870;9.578;2022-08-07T03:58:19;101706.25;;;19.80;56.15
3544;BME280;1786;52.870;9.578;2022-08-07T04:01:09;101709.59;;;19.72;56.09
3544;BME280;1786;52.870;9.578;2022-08-07T04:03:37;101708.75;;;19.72;56.05
3544;BME280;1786;52.870;9.578;2022-08-07T04:06:22;101716.66;;;19.62;56.11
3544;BME280;1786;52.870;9.578;2022-08-07T04:09:06;101716.13;;;19.79;56.06
3544;BME280;1786;52.870;9.578;2022-08-07T04:11:43;101710.25;;;19.85;55.87
3544;BME280;1786;52.870;9.578;2022-08-07T04:14:32;101708.91;;;19.91;55.60
3544;BME280;1786;52.870;9.578;2022-08-07T04:17:12;101714.84;;;19.95;55.91
3544;BME280;1786;52.870;9.578;2022-08-07T04:19:48;101716.94;;;19.91;55.85
3544;BME280;1786;52.870;9.578;2022-08-07T04:22:23;101711.69;;;19.89;55.70
3544;BME280;1786;52.870;9.578;2022-08-07T04:24:57;101713.34;;;20.02;55.88
3544;BME280;1786;52.870;9.578;2022-08-07T04:27:27;101709.59;;;20.14;55.86
3544;BME280;1786;52.870;9.578;2022-08-07T04:30:04;101711.75;;;20.20;55.77
3544;BME280;1786;52.870;9.578;2022-08-07T04:32:54;101717.94;;;20.42;55.35
3544;BME280;1786;52.870;9.578;2022-08-07T04:35:25;101714.28;;;20.43;55.33
3544;BME280;1786;52.870;9.578;2022-08-07T04:37:54;101711.53;;;20.54;55.62
3544;BME280;1786;52.870;9.578;2022-08-07T04:40:38;101711.28;;;20.57;55.97
3544;BME280;1786;52.870;9.578;2022-08-07T04:43:27;101716.38;;;20.60;55.89
3544;BME280;1786;52.870;9.578;2022-08-07T04:50:05;101720.47;;;20.95;55.63
3544;BME280;1786;52.870;9.578;2022-08-07T04:52:45;101725.56;;;20.98;55.66
3544;BME280;1786;52.870;9.578;2022-08-07T04:55:28;101725.88;;;21.14;55.44
3544;BME280;1786;52.870;9.578;2022-08-07T04:58:21;101718.78;;;21.13;55.74
3544;BME280;1786;52.870;9.578;2022-08-07T05:01:12;101718.25;;;21.20;55.81
3544;BME280;1786;52.870;9.578;2022-08-07T05:03:47;101720.28;;;21.37;55.40
3544;BME280;1786;52.870;9.578;2022-08-07T05:06:55;101719.59;;;21.45;55.78
3544;BME280;1786;52.870;9.578;2022-08-07T05:12:15;101725.38;;;21.59;55.72
3544;BME280;1786;52.870;9.578;2022-08-07T05:15:02;101728.78;;;21.81;56.04
3544;BME280;1786;52.870;9.578;2022-08-07T05:17:58;101725.13;;;21.72;56.27
3544;BME280;1786;52.870;9.578;2022-08-07T05:20:35;101725.66;;;21.37;58.21
3544;BME280;1786;52.870;9.578;2022-08-07T05:23:08;101739.94;;;22.25;57.35
3544;BME280;1786;52.870;9.578;2022-08-07T05:25:45;101730.38;;;24.49;54.80
3544;BME280;1786;52.870;9.578;2022-08-07T05:28:33;101738.50;;;26.96;49.08
3544;BME280;1786;52.870;9.578;2022-08-07T05:31:02;101757.31;;;28.88;46.19
3544;BME280;1786;52.870;9.578;2022-08-07T05:33:33;101766.94;;;30.56;43.31
3544;BME280;1786;52.870;9.578;2022-08-07T05:36:06;101758.22;;;32.04;41.32
3544;BME280;1786;52.870;9.578;2022-08-07T05:38:50;101775.47;;;33.48;38.60
3544;BME280;1786;52.870;9.578;2022-08-07T05:41:34;101793.41;;;35.43;37.11
3544;BME280;1786;52.870;9.578;2022-08-07T05:44:21;101784.25;;;36.73;35.25
3544;BME280;1786;52.870;9.578;2022-08-07T05:46:57;101792.78;;;37.53;34.34
3544;BME280;1786;52.870;9.578;2022-08-07T05:49:28;101792.19;;;38.35;33.52
3544;BME280;1786;52.870;9.578;2022-08-07T05:52:08;101788.81;;;38.89;32.63
3544;BME280;1786;52.870;9.578;2022-08-07T05:54:38;101799.88;;;39.92;30.69
3544;BME280;1786;52.870;9.578;2022-08-07T05:57:22;101784.22;;;40.51;30.84
3544;BME280;1786;52.870;9.578;2022-08-07T05:59:57;101788.94;;;41.13;30.24
3544;BME280;1786;52.870;9.578;2022-08-07T06:02:39;101784.00;;;41.51;29.36
3544;BME280;1786;52.870;9.578;2022-08-07T06:05:11;101789.00;;;42.05;29.24
3544;BME280;1786;52.870;9.578;2022-08-07T06:07:43;101781.81;;;41.68;29.24
3544;BME280;1786;52.870;9.578;2022-08-07T06:10:30;101780.09;;;41.37;29.18
3544;BME280;1786;52.870;9.578;2022-08-07T06:12:59;101771.50;;;41.28;29.60
3544;BME280;1786;52.870;9.578;2022-08-07T06:15:33;101773.84;;;40.83;30.38
3544;BME280;1786;52.870;9.578;2022-08-07T06:18:11;101767.97;;;40.75;30.34
3544;BME280;1786;52.870;9.578;2022-08-07T06:20:40;101772.31;;;41.28;29.75
3544;BME280;1786;52.870;9.578;2022-08-07T06:23:30;101780.09;;;42.13;28.71
3544;BME280;1786;52.870;9.578;2022-08-07T06:26:19;101776.34;;;42.74;28.69
3544;BME280;1786;52.870;9.578;2022-08-07T06:28:52;101774.25;;;43.00;28.30
3544;BME280;1786;52.870;9.578;2022-08-07T06:31:20;101783.50;;;43.40;27.81
3544;BME280;1786;52.870;9.578;2022-08-07T06:34:04;101787.75;;;43.67;28.11
3544;BME280;1786;52.870;9.578;2022-08-07T06:36:31;101787.06;;;43.46;27.50
3544;BME280;1786;52.870;9.578;2022-08-07T06:39:01;101784.81;;;43.82;27.22
3544;BME280;1786;52.870;9.578;2022-08-07T06:42:41;101795.47;;;44.34;27.92
3544;BME280;1786;52.870;9.578;2022-08-07T06:45:22;101785.72;;;44.07;27.06
3544;BME280;1786;52.870;9.578;2022-08-07T06:47:59;101790.38;;;44.17;27.44
3544;BME280;1786;52.870;9.578;2022-08-07T06:50:35;101783.44;;;43.46;27.32
3544;BME280;1786;52.870;9.578;2022-08-07T06:53:09;101786.38;;;43.25;28.21
3544;BME280;1786;52.870;9.578;2022-08-07T06:55:57;101775.94;;;43.80;27.06
3544;BME280;1786;52.870;9.578;2022-08-07T06:58:29;101775.94;;;44.10;26.88
3544;BME280;1786;52.870;9.578;2022-08-07T07:01:06;101775.19;;;44.04;27.80
3544;BME280;1786;52.870;9.578;2022-08-07T07:03:36;101779.81;;;44.38;27.44
3544;BME280;1786;52.870;9.578;2022-08-07T07:06:15;101782.97;;;44.31;27.63
3544;BME280;1786;52.870;9.578;2022-08-07T07:08:53;101776.13;;;45.09;26.40
3544;BME280;1786;52.870;9.578;2022-08-07T07:11:20;101782.34;;;45.91;25.79
3544;BME280;1786;52.870;9.578;2022-08-07T07:14:07;101775.91;;;45.76;26.24
3544;BME280;1786;52.870;9.578;2022-08-07T07:16:37;101779.00;;;45.42;27.23
3544;BME280;1786;52.870;9.578;2022-08-07T07:19:19;101781.31;;;45.54;26.74
3544;BME280;1786;52.870;9.578;2022-08-07T07:22:08;101779.69;;;45.34;26.45
3544;BME280;1786;52.870;9.578;2022-08-07T07:24:55;101778.19;;;45.74;25.81
3544;BME280;1786;52.870;9.578;2022-08-07T07:30:32;101786.50;;;45.93;26.20
3544;BME280;1786;52.870;9.578;2022-08-07T07:33:09;101786.69;;;45.83;26.11
3544;BME280;1786;52.870;9.578;2022-08-07T07:35:40;101781.19;;;46.38;26.04
3544;BME280;1786;52.870;9.578;2022-08-07T07:38:29;101776.50;;;45.41;26.37
3544;BME280;1786;52.870;9.578;2022-08-07T07:41:01;101779.19;;;44.46;26.92
3544;BME280;1786;52.870;9.578;2022-08-07T07:43:30;101783.38;;;44.67;26.79
3544;BME280;1786;52.870;9.578;2022-08-07T07:46:18;101768.28;;;44.20;27.14
3544;BME280;1786;52.870;9.578;2022-08-07T07:49:08;101763.91;;;45.05;27.06
3544;BME280;1786;52.870;9.578;2022-08-07T07:51:57;101769.47;;;45.76;26.71
3544;BME280;1786;52.870;9.578;2022-08-07T07:54:26;101770.81;;;46.25;25.74
3544;BME280;1786;52.870;9.578;2022-08-07T07:56:55;101766.88;;;46.26;25.21
3544;BME280;1786;52.870;9.578;2022-08-07T07:59:24;101771.00;;;46.01;26.20
3544;BME280;1786;52.870;9.578;2022-08-07T08:02:13;101765.38;;;45.87;26.66
3544;BME280;1786;52.870;9.578;2022-08-07T08:05:03;101766.47;;;46.19;25.61
3544;BME280;1786;52.870;9.578;2022-08-07T08:07:37;101771.72;;;46.07;25.56
3544;BME280;1786;52.870;9.578;2022-08-07T08:10:18;101762.88;;;45.86;26.47
3544;BME280;1786;52.870;9.578;2022-08-07T08:13:05;101758.97;;;46.70;25.86
3544;BME280;1786;52.870;9.578;2022-08-07T08:15:38;101765.47;;;46.43;24.97
3544;BME280;1786;52.870;9.578;2022-08-07T08:18:26;101764.59;;;46.14;25.16
3544;BME280;1786;52.870;9.578;2022-08-07T08:20:56;101751.06;;;45.75;26.27
3544;BME280;1786;52.870;9.578;2022-08-07T08:23:24;101756.03;;;45.64;26.05
3544;BME280;1786;52.870;9.578;2022-08-07T08:26:13;101751.91;;;44.86;25.78
3544;BME280;1786;52.870;9.578;2022-08-07T08:29:02;101752.00;;;44.33;27.43
3544;BME280;1786;52.870;9.578;2022-08-07T08:31:32;101737.06;;;44.47;25.60
3544;BME280;1786;52.870;9.578;2022-08-07T08:34:31;101728.19;;;42.14;26.50
3544;BME280;1786;52.870;9.578;2022-08-07T08:37:01;101722.97;;;41.56;27.67
3544;BME280;1786;52.870;9.578;2022-08-07T08:39:35;101713.50;;;41.26;30.01
3544;BME280;1786;52.870;9.578;2022-08-07T08:42:27;101717.09;;;41.42;29.29
3544;BME280;1786;52.870;9.578;2022-08-07T08:45:09;101712.38;;;41.22;27.86
3544;BME280;1786;52.870;9.578;2022-08-07T08:51:00;101708.84;;;40.01;28.56
3544;BME280;1786;52.870;9.578;2022-08-07T08:56:36;101704.41;;;37.81;31.18
3544;BME280;1786;52.870;9.578;2022-08-07T08:59:26;101701.16;;;38.01;30.42
3544;BME280;1786;52.870;9.578;2022-08-07T09:08:18;101694.22;;;37.65;30.88
3544;BME280;1786;52.870;9.578;2022-08-07T09:10:30;101704.53;;;37.53;30.64
3544;BME280;1786;52.870;9.578;2022-08-07T09:13:17;101698.94;;;36.38;31.66
3544;BME280;1786;52.870;9.578;2022-08-07T09:16:07;101708.84;;;36.63;33.58
3544;BME280;1786;52.870;9.578;2022-08-07T09:19:11;101703.63;;;37.35;33.03
3544;BME280;1786;52.870;9.578;2022-08-07T09:22:20;101699.72;;;38.16;32.00
3544;BME280;1786;52.870;9.578;2022-08-07T09:25:13;101705.09;;;38.93;30.66
3544;BME280;1786;52.870;9.578;2022-08-07T09:28:03;101702.13;;;38.51;29.71
3544;BME280;1786;52.870;9.578;2022-08-07T09:31:02;101706.44;;;38.03;31.31
3544;BME280;1786;52.870;9.578;2022-08-07T09:33:55;101701.59;;;38.54;30.24
3544;BME280;1786;52.870;9.578;2022-08-07T09:36:35;101696.72;;;38.61;31.95
3544;BME280;1786;52.870;9.578;2022-08-07T09:42:36;101688.84;;;38.09;29.35
3544;BME280;1786;52.870;9.578;2022-08-07T09:45:14;101677.19;;;37.68;29.70
3544;BME280;1786;52.870;9.578;2022-08-07T09:48:19;101674.28;;;37.12;31.20
3544;BME280;1786;52.870;9.578;2022-08-07T09:54:01;101663.94;;;36.62;30.99
3544;BME280;1786;52.870;9.578;2022-08-07T09:56:45;101658.97;;;36.24;30.59
3544;BME280;1786;52.870;9.578;2022-08-07T10:02:04;101642.25;;;35.78;31.82
3544;BME280;1786;52.870;9.578;2022-08-07T10:07:42;101644.00;;;36.31;32.75
3544;BME280;1786;52.870;9.578;2022-08-07T10:19:24;101634.94;;;37.51;31.67
3544;BME280;1786;52.870;9.578;2022-08-07T10:25:11;101639.28;;;36.84;31.78
3544;BME280;1786;52.870;9.578;2022-08-07T10:31:17;101626.13;;;36.57;32.49
3544;BME280;1786;52.870;9.578;2022-08-07T10:34:24;101621.41;;;36.29;32.41
3544;BME280;1786;52.870;9.578;2022-08-07T10:37:09;101619.47;;;36.70;32.04
3544;BME280;1786;52.870;9.578;2022-08-07T10:42:41;101614.09;;;36.35;31.79
3544;BME280;1786;52.870;9.578;2022-08-07T10:45:25;101607.94;;;36.45;32.28
3544;BME280;1786;52.870;9.578;2022-08-07T10:48:35;101604.88;;;36.70;30.44
3544;BME280;1786;52.870;9.578;2022-08-07T10:51:20;101604.19;;;37.08;32.39
3544;BME280;1786;52.870;9.578;2022-08-07T10:54:14;101606.31;;;37.91;30.29
3544;BME280;1786;52.870;9.578;2022-08-07T10:57:05;101609.38;;;38.33;29.10
3544;BME280;1786;52.870;9.578;2022-08-07T10:59:57;101600.97;;;38.01;30.86
3544;BME280;1786;52.870;9.578;2022-08-07T11:02:29;101600.47;;;38.53;29.41
3544;BME280;1786;52.870;9.578;2022-08-07T11:08:45;101590.66;;;39.22;29.71
3544;BME280;1786;52.870;9.578;2022-08-07T11:11:20;101594.75;;;40.04;28.99
3544;BME280;1786;52.870;9.578;2022-08-07T11:14:02;101585.56;;;39.88;27.99
3544;BME280;1786;52.870;9.578;2022-08-07T11:16:55;101589.22;;;38.87;27.87
3544;BME280;1786;52.870;9.578;2022-08-07T11:19:54;101578.63;;;37.46;30.49
3544;BME280;1786;52.870;9.578;2022-08-07T11:25:31;101572.38;;;36.43;30.08
3544;BME280;1786;52.870;9.578;2022-08-07T11:28:57;101568.34;;;36.34;30.61
3544;BME280;1786;52.870;9.578;2022-08-07T11:31:43;101571.41;;;36.49;30.45
3544;BME280;1786;52.870;9.578;2022-08-07T11:34:23;101564.50;;;36.92;31.34
3544;BME280;1786;52.870;9.578;2022-08-07T11:36:59;101558.53;;;37.90;28.53
3544;BME280;1786;52.870;9.578;2022-08-07T11:39:43;101565.44;;;38.31;31.02
3544;BME280;1786;52.870;9.578;2022-08-07T11:45:53;101550.97;;;39.06;29.07
3544;BME280;1786;52.870;9.578;2022-08-07T11:48:40;101557.22;;;39.28;30.41
3544;BME280;1786;52.870;9.578;2022-08-07T11:54:37;101544.59;;;39.37;29.90
3544;BME280;1786;52.870;9.578;2022-08-07T11:57:15;101545.72;;;39.04;30.26
3544;BME280;1786;52.870;9.578;2022-08-07T12:00:17;101539.50;;;39.24;30.05
3544;BME280;1786;52.870;9.578;2022-08-07T12:06:22;101535.25;;;39.06;29.49
3544;BME280;1786;52.870;9.578;2022-08-07T12:09:21;101541.09;;;38.83;28.62
3544;BME280;1786;52.870;9.578;2022-08-07T12:12:09;101544.13;;;38.27;29.25
3544;BME280;1786;52.870;9.578;2022-08-07T12:14:48;101538.22;;;38.18;29.38
3544;BME280;1786;52.870;9.578;2022-08-07T12:17:37;101532.69;;;37.74;29.92
3544;BME280;1786;52.870;9.578;2022-08-07T12:20:33;101531.72;;;37.46;30.14
3544;BME280;1786;52.870;9.578;2022-08-07T12:26:16;101518.84;;;36.79;29.56
3544;BME280;1786;52.870;9.578;2022-08-07T12:29:08;101509.97;;;36.49;29.30
3544;BME280;1786;52.870;9.578;2022-08-07T12:31:48;101516.31;;;36.32;30.88
3544;BME280;1786;52.870;9.578;2022-08-07T12:34:33;101516.47;;;36.88;31.03
3544;BME280;1786;52.870;9.578;2022-08-07T12:37:01;101519.34;;;37.49;32.52
3544;BME280;1786;52.870;9.578;2022-08-07T12:39:35;101518.50;;;38.31;30.69
3544;BME280;1786;52.870;9.578;2022-08-07T12:42:20;101504.97;;;37.86;28.90
3544;BME280;1786;52.870;9.578;2022-08-07T12:44:56;101507.53;;;38.42;29.20
3544;BME280;1786;52.870;9.578;2022-08-07T12:47:31;101495.53;;;36.87;30.22
3544;BME280;1786;52.870;9.578;2022-08-07T12:50:29;101493.50;;;36.99;29.44
3544;BME280;1786;52.870;9.578;2022-08-07T12:53:27;101488.81;;;36.49;30.24
3544;BME280;1786;52.870;9.578;2022-08-07T12:56:30;101485.09;;;37.06;29.90
3544;BME280;1786;52.870;9.578;2022-08-07T12:59:02;101487.00;;;37.22;29.65
3544;BME280;1786;52.870;9.578;2022-08-07T13:02:00;101487.16;;;37.33;29.47
3544;BME280;1786;52.870;9.578;2022-08-07T13:10:45;101481.00;;;37.09;29.57
3544;BME280;1786;52.870;9.578;2022-08-07T13:16:36;101487.38;;;38.14;28.80
3544;BME280;1786;52.870;9.578;2022-08-07T13:22:35;101472.53;;;38.80;28.54
3544;BME280;1786;52.870;9.578;2022-08-07T13:25:18;101473.81;;;38.99;31.08
3544;BME280;1786;52.870;9.578;2022-08-07T13:28:01;101479.72;;;39.71;29.10
3544;BME280;1786;52.870;9.578;2022-08-07T13:30:43;101479.88;;;40.07;28.25
3544;BME280;1786;52.870;9.578;2022-08-07T13:33:36;101478.28;;;40.31;28.70
3544;BME280;1786;52.870;9.578;2022-08-07T13:36:33;101466.41;;;39.57;28.67
3544;BME280;1786;52.870;9.578;2022-08-07T13:39:18;101463.44;;;39.22;28.63
3544;BME280;1786;52.870;9.578;2022-08-07T13:42:08;101472.47;;;39.07;28.32
3544;BME280;1786;52.870;9.578;2022-08-07T13:44:37;101467.91;;;39.28;29.72
3544;BME280;1786;52.870;9.578;2022-08-07T13:47:08;101463.69;;;39.73;29.15
3544;BME280;1786;52.870;9.578;2022-08-07T13:49:44;101466.44;;;39.63;28.73
3544;BME280;1786;52.870;9.578;2022-08-07T13:52:32;101462.88;;;39.72;29.00
3544;BME280;1786;52.870;9.578;2022-08-07T13:55:10;101456.44;;;39.56;28.12
3544;BME280;1786;52.870;9.578;2022-08-07T13:57:48;101455.66;;;39.18;28.76
3544;BME280;1786;52.870;9.578;2022-08-07T14:00:34;101454.53;;;39.09;29.00
3544;BME280;1786;52.870;9.578;2022-08-07T14:03:11;101453.47;;;39.21;28.25
3544;BME280;1786;52.870;9.578;2022-08-07T14:05:55;101450.84;;;39.46;29.38
3544;BME280;1786;52.870;9.578;2022-08-07T14:08:23;101449.66;;;39.27;29.29
3544;BME280;1786;52.870;9.578;2022-08-07T14:10:51;101446.41;;;38.92;28.98
3544;BME280;1786;52.870;9.578;2022-08-07T14:13:39;101438.75;;;38.72;28.64
3544;BME280;1786;52.870;9.578;2022-08-07T14:16:13;101447.56;;;38.10;29.33
3544;BME280;1786;52.870;9.578;2022-08-07T14:18:49;101438.91;;;38.23;28.72
3544;BME280;1786;52.870;9.578;2022-08-07T14:21:26;101439.72;;;38.24;30.10
3544;BME280;1786;52.870;9.578;2022-08-07T14:24:28;101437.00;;;37.53;29.89
3544;BME280;1786;52.870;9.578;2022-08-07T14:27:02;101433.91;;;36.93;29.75
3544;BME280;1786;52.870;9.578;2022-08-07T14:29:52;101423.91;;;36.36;30.04
3544;BME280;1786;52.870;9.578;2022-08-07T14:32:46;101432.94;;;36.66;29.95
3544;BME280;1786;52.870;9.578;2022-08-07T14:35:19;101428.59;;;36.70;29.77
3544;BME280;1786;52.870;9.578;2022-08-07T14:38:07;101419.00;;;36.10;30.34
3544;BME280;1786;52.870;9.578;2022-08-07T14:40:57;101422.06;;;36.59;31.14
3544;BME280;1786;52.870;9.578;2022-08-07T14:43:32;101424.53;;;36.27;30.40
3544;BME280;1786;52.870;9.578;2022-08-07T14:46:21;101424.59;;;35.46;31.30
3544;BME280;1786;52.870;9.578;2022-08-07T14:48:59;101415.06;;;35.77;30.79
3544;BME280;1786;52.870;9.578;2022-08-07T14:51:48;101410.09;;;35.62;31.52
3544;BME280;1786;52.870;9.578;2022-08-07T14:54:37;101410.50;;;35.30;32.30
3544;BME280;1786;52.870;9.578;2022-08-07T14:57:13;101404.28;;;35.00;31.42
3544;BME280;1786;52.870;9.578;2022-08-07T14:59:46;101408.94;;;34.99;31.53
3544;BME280;1786;52.870;9.578;2022-08-07T15:02:32;101402.97;;;33.83;32.48
3544;BME280;1786;52.870;9.578;2022-08-07T15:05:00;101406.81;;;34.24;32.28
3544;BME280;1786;52.870;9.578;2022-08-07T15:07:28;101401.56;;;34.76;32.32
3544;BME280;1786;52.870;9.578;2022-08-07T15:10:22;101396.75;;;35.30;32.77
3544;BME280;1786;52.870;9.578;2022-08-07T15:13:00;101402.13;;;35.78;32.13
3544;BME280;1786;52.870;9.578;2022-08-07T15:15:40;101388.56;;;33.99;32.90
3544;BME280;1786;52.870;9.578;2022-08-07T15:18:17;101394.22;;;34.46;32.46
3544;BME280;1786;52.870;9.578;2022-08-07T15:21:03;101396.53;;;34.19;32.98
3544;BME280;1786;52.870;9.578;2022-08-07T15:23:54;101393.09;;;34.78;32.24
3544;BME280;1786;52.870;9.578;2022-08-07T15:26:46;101394.28;;;34.94;32.81
3544;BME280;1786;52.870;9.578;2022-08-07T15:29:17;101399.84;;;35.46;32.13
3544;BME280;1786;52.870;9.578;2022-08-07T15:32:05;101400.19;;;35.49;31.78
3544;BME280;1786;52.870;9.578;2022-08-07T15:34:46;101396.88;;;35.00;32.28
3544;BME280;1786;52.870;9.578;2022-08-07T15:37:24;101396.41;;;35.15;31.64
3544;BME280;1786;52.870;9.578;2022-08-07T15:39:56;101399.72;;;34.46;31.99
3544;BME280;1786;52.870;9.578;2022-08-07T15:45:13;101379.84;;;33.60;32.67